School House Canyon (220) Station Data

Red Flag Warning: No
Fire Weather Zone: 250
SDGE Region: Ramona
Lat/Lon: 33.146/-116.641

Observations

Time Wind Speed/Gust Temp(F) RH Fuel Moist Fuel Temp(F) Dewpt(F) Tmax(F) Tmin(F) Accum Precip 10-min Precip SL Press(mb)
2/27 11:40pm 217 9 G 19 40° 100% - - 40° 44° 35.9° - - -
2/27 11:20pm 223 9 G 17 40° 100% - - 40° 44° 35.9° - - -
2/27 11:10pm 233 11 G 19 40° 100% - - 40° 44° 35.9° - - -
2/27 11:00pm 235 11 G 20 41° 100% - - 41° 44° 35.9° - - -
2/27 10:50pm 211 13 G 25 41° 100% - - 41° 44° 35.9° - - -
2/27 10:40pm 207 16 G 26 41° 100% - - 41° 44° 35.9° - - -
2/27 10:30pm 212 17 G 31 41° 100% - - 41° 44° 35.9° - - -
2/27 10:20pm 209 15 G 29 42° 100% - - 42° 44° 35.9° - - -
2/27 10:10pm 215 15 G 31 42° 100% - - 42° 44° 35.9° - - -
2/27 10:00pm 206 14 G 35 42° 100% - - 42° 44° 35.9° - - -
2/27 9:50pm 201 14 G 27 42° 100% - - 42° 44° 35.9° - - -
2/27 9:40pm 199 15 G 31 42° 100% - - 42° 44° 35.9° - - -
2/27 9:30pm 205 12 G 22 42° 100% - - 41° 44° 35.9° - - -
2/27 9:20pm 207 11 G 22 42° 100% - - 42° 44° 35.9° - - -
2/27 9:10pm 208 11 G 21 42° 100% - - 41° 44° 35.9° - - -
2/27 9:00pm 207 12 G 28 41° 100% - - 41° 44° 35.9° - - -
2/27 8:50pm 212 8 G 14 41° 100% - - 41° 44° 35.9° - - -
2/27 8:40pm 211 8 G 16 41° 100% - - 41° 44° 35.9° - - -
2/27 8:30pm 212 9 G 14 41° 100% - - 41° 44° 35.9° - - -
2/27 8:20pm 217 8 G 19 41° 100% - - 41° 44° 35.9° - - -
2/27 8:10pm 216 7 G 13 41° 100% - - 41° 44° 35.9° - - -
2/27 8:00pm 216 8 G 16 41° 100% - - 41° 44° 35.9° - - -
2/27 7:50pm 213 8 G 18 41° 100% - - 41° 44° 35.9° - - -
2/27 7:40pm 203 9 G 18 41° 100% - - 41° 44° 35.9° - - -
2/27 7:30pm 193 11 G 21 41° 100% - - 41° 44° 35.9° - - -
2/27 7:20pm 193 10 G 20 41° 100% - - 41° 44° 35.9° - - -
2/27 7:10pm 204 10 G 18 41° 100% - - 41° 44° 35.9° - - -
2/27 7:00pm 211 9 G 18 41° 100% - - 41° 44° 35.9° - - -
2/27 6:50pm 211 9 G 17 41° 100% - - 41° 44° 35.9° - - -
2/27 6:40pm 202 10 G 20 41° 100% - - 41° 44° 35.9° - - -
2/27 6:30pm 210 10 G 22 41° 100% - - 41° 44° 35.9° - - -
2/27 6:20pm 204 12 G 24 41° 100% - - 41° 44° 35.9° - - -
2/27 6:10pm 202 14 G 27 41° 100% - - 41° 44° 35.9° - - -
2/27 6:00pm 196 14 G 26 41° 100% - - 41° 44° 35.9° - - -
2/27 5:50pm 202 13 G 27 41° 100% - - 41° 44° 35.9° - - -
2/27 5:40pm 199 14 G 25 41° 100% - - 41° 44° 35.9° - - -
2/27 5:30pm 197 14 G 26 41° 100% - - 41° 44° 35.9° - - -
2/27 5:20pm 200 13 G 24 42° 100% - - 42° 44° 35.9° - - -
2/27 5:10pm 201 13 G 23 42° 100% - - 42° 44° 35.9° - - -
2/27 5:00pm 200 13 G 28 42° 100% - - 42° 44° 35.9° - - -
2/27 4:50pm 204 11 G 24 42° 100% - - 42° 44° 35.9° - - -
2/27 4:40pm 199 13 G 25 41° 100% - - 41° 44° 35.9° - - -
2/27 4:30pm 202 12 G 23 42° 100% - - 42° 44° 35.9° - - -
2/27 4:20pm 200 11 G 26 42° 100% - - 42° 44° 35.9° - - -
2/27 4:10pm 201 11 G 21 42° 100% - - 42° 44° 35.9° - - -
2/27 4:00pm 195 16 G 27 41° 100% - - 41° 44° 35.9° - - -
2/27 3:50pm 202 12 G 21 42° 100% - - 42° 44° 35.9° - - -
2/27 3:40pm 201 13 G 24 42° 100% - - 42° 44° 35.9° - - -
2/27 3:30pm 199 13 G 23 42° 100% - - 42° 44° 35.9° - - -
2/27 3:20pm 205 13 G 27 42° 100% - - 42° 44° 35.9° - - -
2/27 3:10pm 209 10 G 25 42° 100% - - 42° 44° 35.9° - - -
2/27 3:00pm 204 14 G 26 42° 100% - - 42° 44° 35.9° - - -
2/27 2:50pm 206 15 G 32 43° 100% - - 43° 44° 35.9° - - -
2/27 2:40pm 209 13 G 28 43° 100% - - 43° 44° 35.9° - - -
2/27 2:30pm 201 16 G 28 43° 100% - - 43° 44° 35.9° - - -
2/27 2:20pm 203 15 G 25 43° 100% - - 43° 44° 35.9° - - -
2/27 2:10pm 207 13 G 25 43° 100% - - 43° 44° 35.9° - - -
2/27 2:00pm 201 14 G 27 43° 100% - - 43° 44° 35.9° - - -
2/27 1:50pm 204 13 G 24 43° 100% - - 43° 44° 35.9° - - -
2/27 1:40pm 201 13 G 23 43° 100% - - 43° 44° 35.9° - - -
2/27 1:30pm 210 12 G 25 43° 100% - - 43° 44° 35.9° - - -
2/27 1:20pm 207 13 G 26 43° 100% - - 43° 44° 35.9° - - -
2/27 1:10pm 202 13 G 28 43° 100% - - 43° 44° 35.9° - - -
2/27 1:00pm 215 10 G 17 43° 100% - - 43° 44° 35.9° - - -
2/27 12:50pm 213 11 G 20 43° 100% - - 43° 44° 35.9° - - -
2/27 12:40pm 210 11 G 23 43° 100% - - 43° 44° 35.9° - - -
2/27 12:30pm 201 14 G 25 43° 100% - - 43° 44° 35.9° - - -
2/27 12:20pm 193 15 G 28 43° 100% - - 43° 44° 35.9° - - -
2/27 12:10pm 194 16 G 26 43° 100% - - 43° 44° 35.9° - - -
2/27 12:00pm 207 10 G 23 43° 100% - - 43° 44° 35.9° - - -
2/27 11:50am 202 13 G 25 43° 100% - - 43° 44° 35.9° - - -
2/27 11:40am 197 15 G 33 43° 100% - - 43° 44° 35.9° - - -
2/27 11:30am 197 12 G 20 43° 100% - - 43° 44° 35.9° - - -
2/27 11:20am 202 11 G 21 43° 100% - - 43° 44° 35.9° - - -
2/27 11:10am 202 15 G 27 43° 100% - - 43° 44° 35.9° - - -
2/27 11:00am 212 11 G 21 43° 100% - - 43° 44° 35.9° - - -
2/27 10:50am 208 14 G 29 43° 100% - - 43° 44° 35.9° - - -
2/27 10:40am 206 13 G 22 43° 100% - - 43° 44° 35.9° - - -
2/27 10:30am 213 13 G 27 43° 100% - - 43° 44° 35.9° - - -
2/27 10:20am 216 13 G 28 43° 100% - - 43° 44° 35.9° - - -
2/27 10:10am 216 14 G 27 43° 100% - - 43° 44° 35.9° - - -
2/27 10:00am 211 12 G 22 43° 100% - - 43° 44° 35.9° - - -
2/27 9:50am 210 11 G 24 43° 100% - - 43° 44° 35.9° - - -
2/27 9:40am 210 10 G 21 43° 100% - - 43° 44° 35.9° - - -
2/27 9:30am 194 13 G 25 43° 100% - - 43° 44° 35.9° - - -
2/27 9:20am 195 14 G 24 43° 100% - - 43° 44° 35.9° - - -
2/27 9:10am 197 11 G 20 43° 100% - - 43° 44° 35.9° - - -
2/27 9:00am 207 9 G 17 43° 100% - - 43° 44° 35.9° - - -
2/27 8:50am 205 9 G 18 43° 100% - - 43° 44° 35.9° - - -
2/27 8:40am 204 9 G 19 43° 100% - - 43° 44° 35.9° - - -
2/27 8:30am 205 9 G 19 43° 100% - - 43° 44° 35.9° - - -
2/27 8:20am 213 10 G 19 44° 100% - - 44° 44° 35.9° - - -
2/27 8:10am 212 9 G 17 44° 100% - - 44° 44° 35.9° - - -
2/27 8:00am 219 11 G 19 44° 100% - - 44° 44° 35.9° - - -
2/27 7:50am 211 10 G 18 44° 100% - - 44° 44° 35.9° - - -
2/27 7:40am 215 8 G 17 44° 100% - - 44° 44° 35.9° - - -
2/27 7:30am 207 10 G 19 43° 100% - - 43° 44° 35.9° - - -
2/27 7:20am 204 11 G 20 43° 100% - - 43° 43.9° 35.9° - - -
2/27 7:10am 208 10 G 25 43° 100% - - 43° 43.9° 35.9° - - -
2/27 7:00am 203 12 G 24 43° 100% - - 43° 43.7° 35.9° - - -
2/27 6:50am 209 10 G 18 43° 100% - - 43° 43.5° 35.9° - - -
2/27 6:40am 204 9 G 21 43° 100% - - 43° 43.5° 35.9° - - -
2/27 6:30am 207 8 G 15 43° 100% - - 43° 43.4° 35.9° - - -
2/27 6:20am 208 9 G 18 43° 100% - - 43° 43.4° 35.9° - - -
2/27 6:10am 207 8 G 15 43° 100% - - 43° 43.4° 35.9° - - -
2/27 6:00am 206 9 G 15 43° 100% - - 43° 43.2° 35.9° - - -
2/27 5:50am 195 11 G 18 43° 100% - - 43° 43.1° 35.9° - - -
2/27 5:40am 194 10 G 21 43° 100% - - 43° 43.1° 35.9° - - -
2/27 5:30am 193 11 G 20 43° 100% - - 43° 43.1° 35.9° - - -
2/27 5:20am 199 11 G 21 43° 100% - - 42° 43° 35.9° - - -
2/27 5:10am 196 11 G 18 42° 100% - - 42° 42.9° 35.9° - - -
2/27 5:00am 193 11 G 18 42° 100% - - 42° 42.7° 35.9° - - -
2/27 4:50am 190 9 G 18 42° 100% - - 42° 42.5° 35.9° - - -
2/27 4:40am 187 8 G 15 42° 100% - - 42° 42.3° 35.9° - - -
2/27 4:30am 185 6 G 12 42° 100% - - 42° 42.2° 35.9° - - -
2/27 4:20am 182 4 G 9 41° 100% - - 41° 42.1° 35.9° - - -
2/27 4:10am 193 7 G 13 41° 100% - - 41° 41.8° 35.9° - - -
2/27 4:00am 192 7 G 13 41° 100% - - 41° 41.6° 35.9° - - -
2/27 3:50am 194 6 G 13 41° 100% - - 40° 41.1° 35.9° - - -
2/27 3:40am 209 5 G 10 40° 100% - - 40° 40.8° 35.9° - - -
2/27 3:30am 214 6 G 10 40° 100% - - 40° 40.6° 35.9° - - -
2/27 3:20am 214 7 G 11 40° 100% - - 40° 40.6° 35.9° - - -
2/27 3:10am 216 8 G 14 40° 100% - - 40° 40.5° 35.9° - - -
2/27 3:00am 216 7 G 12 40° 100% - - 40° 40.3° 35.9° - - -
2/27 2:50am 215 7 G 14 40° 100% - - 40° 40.3° 35.9° - - -
2/27 2:40am 211 8 G 14 40° 100% - - 40° 40° 35.9° - - -
2/27 2:30am 213 8 G 16 39° 100% - - 39° 40° 35.9° - - -
2/27 2:20am 216 9 G 16 39° 100% - - 39° 39.6° 35.9° - - -
2/27 2:10am 212 8 G 14 39° 100% - - 39° 39.3° 35.9° - - -
2/27 2:00am 218 8 G 15 39° 100% - - 39° 39.1° 35.9° - - -
2/27 1:50am 217 7 G 14 38° 100% - - 38° 39° 35.9° - - -
2/27 1:40am 216 6 G 13 38° 100% - - 38° 38.3° 35.9° - - -
2/27 1:30am 219 5 G 9 37° 100% - - 37° 37.8° 35.9° - - -
2/27 1:20am 219 5 G 9 37° 100% - - 37° 37.4° 35.9° - - -
2/27 1:10am 219 5 G 10 37° 100% - - 37° 37.3° 35.9° - - -
2/27 1:00am 218 5 G 10 37° 100% - - 37° 37.1° 35.9° - - -
2/27 12:50am 215 5 G 9 36° 100% - - 36° 37.1° 35.9° - - -
2/27 12:40am 215 5 G 7 36° 100% - - 36° 36.8° 35.9° - - -
2/27 12:30am 219 5 G 10 36° 100% - - 36° 36.8° 35.9° - - -
2/27 12:20am 224 5 G 8 36° 100% - - 36° 36.8° 35.9° - - -
2/27 12:10am 214 6 G 11 36° 100% - - 36° 36.8° 35.9° - - -
2/27 12:00am 225 6 G 11 36° 100% - - 36° 39.5° 31.3° - - -
2/26 11:50pm 219 6 G 11 36° 100% - - 36° 39.5° 31.3° - - -
2/26 11:40pm 209 7 G 12 36° 100% - - 36° 39.5° 31.3° - - -
2/26 11:30pm 210 7 G 14 36° 100% - - 36° 39.5° 31.3° - - -
2/26 11:20pm 216 7 G 16 35° 100% - - 35° 39.5° 31.3° - - -
2/26 11:10pm 216 7 G 13 35° 100% - - 35° 39.5° 31.3° - - -
2/26 11:00pm 214 7 G 13 35° 100% - - 34° 39.5° 31.3° - - -
2/26 10:50pm 215 9 G 16 34° 100% - - 34° 39.5° 31.3° - - -
2/26 10:40pm 212 8 G 16 34° 100% - - 34° 39.5° 31.3° - - -
2/26 10:30pm 211 7 G 12 34° 100% - - 34° 39.5° 31.3° - - -
2/26 10:20pm 213 7 G 12 34° 100% - - 34° 39.5° 31.3° - - -
2/26 10:10pm 220 6 G 12 34° 100% - - 34° 39.5° 31.3° - - -
2/26 10:00pm 217 7 G 14 34° 100% - - 34° 39.5° 31.3° - - -
2/26 9:50pm 220 8 G 14 34° 100% - - 34° 39.5° 31.3° - - -
2/26 9:40pm 220 9 G 18 34° 100% - - 34° 39.5° 31.3° - - -
2/26 9:30pm 220 9 G 18 34° 100% - - 34° 39.5° 31.3° - - -
2/26 9:20pm 215 9 G 19 34° 100% - - 34° 39.5° 31.3° - - -
2/26 9:10pm 219 9 G 15 35° 100% - - 35° 39.5° 31.3° - - -
2/26 9:00pm 217 9 G 16 35° 100% - - 35° 39.5° 31.3° - - -
2/26 8:50pm 223 11 G 22 35° 100% - - 35° 39.5° 31.3° - - -
2/26 8:40pm 224 9 G 19 35° 100% - - 35° 39.5° 31.3° - - -
2/26 8:30pm 207 9 G 18 35° 100% - - 35° 39.5° 31.3° - - -
2/26 8:20pm 211 9 G 17 35° 100% - - 35° 39.5° 31.3° - - -
2/26 8:10pm 214 9 G 19 35° 100% - - 35° 39.5° 31.3° - - -
2/26 8:00pm 211 8 G 14 35° 100% - - 35° 39.5° 31.3° - - -
2/26 7:50pm 211 10 G 18 36° 100% - - 36° 39.5° 31.3° - - -
2/26 7:40pm 210 10 G 17 36° 100% - - 36° 39.5° 31.3° - - -
2/26 7:30pm 211 9 G 17 36° 100% - - 36° 39.5° 31.3° - - -
2/26 7:20pm 212 9 G 17 36° 100% - - 36° 39.5° 31.3° - - -
2/26 7:10pm 213 8 G 14 35° 100% - - 35° 39.5° 31.3° - - -
2/26 7:00pm 216 9 G 15 35° 100% - - 35° 39.5° 31.3° - - -
2/26 6:50pm 217 9 G 15 35° 100% - - 35° 39.5° 31.3° - - -
2/26 6:40pm 216 9 G 17 35° 100% - - 35° 39.5° 31.3° - - -
2/26 6:30pm 213 8 G 15 35° 100% - - 35° 39.5° 31.3° - - -
2/26 6:20pm 218 9 G 18 35° 100% - - 35° 39.5° 31.3° - - -
2/26 6:10pm 217 10 G 17 35° 100% - - 35° 39.5° 31.3° - - -
2/26 6:00pm 220 10 G 19 35° 100% - - 35° 39.5° 31.3° - - -
2/26 5:50pm 217 9 G 16 36° 100% - - 36° 39.5° 31.3° - - -
2/26 5:40pm 214 10 G 18 36° 100% - - 36° 39.5° 31.3° - - -
2/26 5:30pm 214 11 G 20 36° 100% - - 36° 39.5° 31.3° - - -
2/26 5:20pm 218 11 G 19 37° 100% - - 37° 39.5° 31.3° - - -
2/26 5:10pm 210 11 G 22 37° 100% - - 37° 39.5° 31.3° - - -
2/26 5:00pm 211 11 G 23 37° 100% - - 37° 39.5° 31.3° - - -